createdAt,value
2023-02-25T00:01:14.173Z,94.58
2023-02-25T00:03:41.118Z,94.51
2023-02-25T00:06:09.865Z,94.26
2023-02-25T00:08:36.520Z,93.77
2023-02-25T00:11:04.946Z,94.03
2023-02-25T00:13:31.942Z,93.81
2023-02-25T00:15:58.329Z,93.62
2023-02-25T00:18:26.125Z,93.55
2023-02-25T00:20:52.767Z,93.32
2023-02-25T00:23:19.124Z,93.54
2023-02-25T00:25:45.834Z,93.91
2023-02-25T00:28:12.710Z,93.47
2023-02-25T00:30:40.216Z,94.02
2023-02-25T00:33:06.694Z,94.18
2023-02-25T00:35:33.366Z,94.40
2023-02-25T00:38:13.812Z,94.27
2023-02-25T00:40:42.250Z,94.76
2023-02-25T00:43:08.576Z,94.68
2023-02-25T00:45:34.980Z,94.73
2023-02-25T00:48:01.335Z,94.91
2023-02-25T00:50:27.712Z,95.42
2023-02-25T00:52:54.081Z,95.27
2023-02-25T00:55:20.524Z,95.31
2023-02-25T00:57:46.934Z,95.38
2023-02-25T01:00:16.293Z,95.06
2023-02-25T01:02:45.548Z,95.25
2023-02-25T01:05:15.454Z,95.17
2023-02-25T01:07:42.452Z,95.25
2023-02-25T01:10:10.792Z,95.20
2023-02-25T01:12:37.696Z,95.27
2023-02-25T01:15:04.953Z,95.03
2023-02-25T01:17:31.570Z,94.98
2023-02-25T01:19:57.978Z,95.08
2023-02-25T01:22:25.309Z,95.05
2023-02-25T01:24:55.170Z,95.05
2023-02-25T01:27:21.681Z,95.05
2023-02-25T01:29:48.016Z,95.23
2023-02-25T01:32:15.304Z,94.96
2023-02-25T01:34:42.193Z,94.32
2023-02-25T01:37:09.638Z,94.08
2023-02-25T01:39:36.165Z,94.54
2023-02-25T01:42:04.546Z,94.50
2023-02-25T01:44:33.814Z,94.76
2023-02-25T01:47:01.477Z,94.37
2023-02-25T01:49:39.882Z,93.91
2023-02-25T01:52:10.206Z,94.08
2023-02-25T01:54:37.621Z,94.09
2023-02-25T01:57:09.181Z,93.83
2023-02-25T01:59:36.923Z,94.11
2023-02-25T02:02:03.894Z,93.71
2023-02-25T02:04:31.517Z,93.86
2023-02-25T02:06:59.061Z,93.54
2023-02-25T02:09:28.367Z,93.84
2023-02-25T02:12:04.699Z,93.22
2023-02-25T02:14:41.482Z,93.28
2023-02-25T02:17:18.818Z,93.41
2023-02-25T02:19:48.367Z,93.39
2023-02-25T02:22:27.275Z,92.88
2023-02-25T02:25:02.782Z,93.00
2023-02-25T02:28:06.460Z,92.77
2023-02-25T02:30:38.433Z,93.05
2023-02-25T02:33:04.812Z,93.25
2023-02-25T02:35:44.615Z,92.95
2023-02-25T02:38:32.776Z,92.80
2023-02-25T02:41:23.652Z,92.39
2023-02-25T02:44:11.520Z,92.85
2023-02-25T02:46:47.509Z,92.77
2023-02-25T02:49:21.807Z,92.97
2023-02-25T02:51:53.616Z,92.79
2023-02-25T02:54:22.432Z,92.50
2023-02-25T02:56:54.470Z,92.33
2023-02-25T02:59:25.804Z,92.46
2023-02-25T03:02:17.454Z,92.35
2023-02-25T03:04:47.322Z,92.49
2023-02-25T03:07:14.986Z,92.45
2023-02-25T03:09:49.035Z,92.35
2023-02-25T03:12:15.700Z,92.70
2023-02-25T03:14:42.106Z,92.61
2023-02-25T03:17:16.732Z,92.62
2023-02-25T03:20:22.059Z,92.85
2023-02-25T03:22:51.789Z,92.92
2023-02-25T03:25:24.795Z,92.65
2023-02-25T03:27:54.424Z,92.71
2023-02-25T03:30:44.041Z,92.57
2023-02-25T03:33:15.447Z,93.09
2023-02-25T03:35:43.303Z,93.10
2023-02-25T03:38:15.566Z,93.57
2023-02-25T03:40:43.126Z,92.80
2023-02-25T03:43:14.086Z,92.83
2023-02-25T03:45:43.293Z,93.08
2023-02-25T03:48:11.720Z,93.30
2023-02-25T03:50:46.884Z,93.41
2023-02-25T03:53:13.327Z,93.35
2023-02-25T03:55:39.977Z,93.28
2023-02-25T03:58:08.231Z,93.52
2023-02-25T04:00:36.168Z,93.74
2023-02-25T04:03:03.479Z,93.51
2023-02-25T04:05:29.857Z,93.60
2023-02-25T04:07:58.023Z,94.04
2023-02-25T04:10:24.931Z,93.75
2023-02-25T04:12:51.394Z,93.72
2023-02-25T04:15:18.720Z,94.24
2023-02-25T04:17:45.397Z,93.85
2023-02-25T04:20:13.740Z,94.49
2023-02-25T04:22:41.467Z,94.48
2023-02-25T04:25:08.874Z,94.61
2023-02-25T04:27:35.264Z,95.01
2023-02-25T04:30:01.879Z,95.12
2023-02-25T04:32:28.508Z,95.05
2023-02-25T04:34:54.911Z,95.22
2023-02-25T04:37:21.243Z,95.00
2023-02-25T04:39:47.719Z,94.66
2023-02-25T04:42:14.292Z,94.72
2023-02-25T04:44:40.714Z,94.71
2023-02-25T04:47:07.148Z,94.52
2023-02-25T04:49:45.119Z,95.15
2023-02-25T04:52:12.853Z,94.56
2023-02-25T04:54:39.494Z,94.74
2023-02-25T04:57:07.232Z,94.35
2023-02-25T04:59:33.735Z,94.34
2023-02-25T05:02:00.776Z,93.95
2023-02-25T05:04:27.376Z,93.75
2023-02-25T05:06:53.752Z,93.52
2023-02-25T05:09:21.241Z,93.38
2023-02-25T05:11:47.762Z,93.62
2023-02-25T05:14:14.155Z,93.37
2023-02-25T05:16:40.613Z,93.40
2023-02-25T05:19:07.043Z,93.32
2023-02-25T05:21:33.466Z,93.22
2023-02-25T05:23:59.835Z,93.25
2023-02-25T05:26:26.481Z,93.31
2023-02-25T05:28:55.272Z,93.25
2023-02-25T05:31:22.960Z,93.21
2023-02-25T05:33:49.519Z,93.24
2023-02-25T05:36:16.732Z,93.05
2023-02-25T05:38:43.858Z,92.92
2023-02-25T05:41:15.135Z,93.26
2023-02-25T05:43:42.138Z,92.89
2023-02-25T05:46:13.091Z,92.88
2023-02-25T05:48:46.617Z,92.65
2023-02-25T05:51:15.985Z,92.81
2023-02-25T05:53:44.692Z,92.71
2023-02-25T05:56:15.075Z,93.07
2023-02-25T05:58:42.229Z,92.90
2023-02-25T06:01:13.984Z,92.80
2023-02-25T06:03:45.196Z,92.83
2023-02-25T06:06:13.332Z,92.69
2023-02-25T06:08:40.911Z,92.93
2023-02-25T06:11:08.543Z,93.06
2023-02-25T06:13:35.232Z,93.39
2023-02-25T06:16:05.652Z,93.27
2023-02-25T06:18:37.113Z,93.13
2023-02-25T06:21:09.391Z,93.42
2023-02-25T06:23:37.484Z,93.19
2023-02-25T06:26:05.698Z,93.20
2023-02-25T06:28:32.710Z,93.32
2023-02-25T06:30:59.825Z,93.57
2023-02-25T06:33:26.424Z,93.41
2023-02-25T06:35:55.646Z,93.16
2023-02-25T06:38:22.260Z,93.54
2023-02-25T06:40:49.652Z,93.08
2023-02-25T06:43:16.841Z,93.48
2023-02-25T06:45:43.307Z,93.36
2023-02-25T06:48:10.136Z,93.12
2023-02-25T06:50:39.244Z,93.01
2023-02-25T06:53:06.355Z,93.43
2023-02-25T06:55:32.883Z,93.33
2023-02-25T06:57:59.274Z,93.04
2023-02-25T07:00:25.990Z,93.07
2023-02-25T07:02:52.333Z,93.02
2023-02-25T07:05:18.782Z,92.60
2023-02-25T07:07:45.086Z,93.37
2023-02-25T07:10:11.596Z,92.77
2023-02-25T07:12:38.114Z,93.10
2023-02-25T07:15:05.196Z,92.58
2023-02-25T07:17:31.527Z,92.87
2023-02-25T07:19:58.009Z,92.73
2023-02-25T07:22:24.426Z,93.08
2023-02-25T07:24:51.265Z,92.79
2023-02-25T07:27:17.633Z,92.86
2023-02-25T07:29:43.942Z,92.79
2023-02-25T07:32:10.406Z,92.44
2023-02-25T07:34:38.037Z,92.01
2023-02-25T07:37:04.406Z,92.07
2023-02-25T07:39:30.795Z,92.66
2023-02-25T07:41:57.234Z,92.86
2023-02-25T07:44:23.905Z,92.40
2023-02-25T07:46:50.321Z,92.47
2023-02-25T07:49:16.849Z,92.63
2023-02-25T07:51:43.223Z,92.25
2023-02-25T07:54:09.566Z,92.30
2023-02-25T07:56:35.998Z,92.01
2023-02-25T07:59:02.430Z,91.90
2023-02-25T08:01:31.857Z,91.36
2023-02-25T08:04:00.333Z,91.75
2023-02-25T08:06:28.023Z,91.53
2023-02-25T08:08:55.508Z,91.55
2023-02-25T08:11:24.209Z,91.31
2023-02-25T08:13:50.750Z,91.40
2023-02-25T08:16:20.190Z,90.72
2023-02-25T08:18:47.590Z,90.94
2023-02-25T08:21:17.993Z,90.75
2023-02-25T08:23:44.952Z,90.65
2023-02-25T08:26:11.402Z,90.21
2023-02-25T08:28:37.976Z,89.96
2023-02-25T08:31:11.562Z,90.00
2023-02-25T08:33:40.663Z,90.18
2023-02-25T08:36:12.908Z,89.73
2023-02-25T08:38:39.745Z,89.23
2023-02-25T08:41:07.154Z,89.43
2023-02-25T08:43:34.037Z,88.99
2023-02-25T08:46:01.408Z,89.77
2023-02-25T08:48:28.046Z,89.99
2023-02-25T08:50:55.520Z,90.73
2023-02-25T08:53:22.746Z,91.41
2023-02-25T08:55:51.031Z,91.56
2023-02-25T08:58:17.428Z,92.43
2023-02-25T09:00:43.833Z,92.78
2023-02-25T09:03:10.273Z,93.26
2023-02-25T09:05:38.016Z,93.08
2023-02-25T09:08:04.908Z,93.05
2023-02-25T09:10:48.245Z,92.85
2023-02-25T09:13:17.163Z,92.61
2023-02-25T09:15:43.651Z,93.37
2023-02-25T09:18:11.605Z,93.43
2023-02-25T09:20:38.499Z,93.49
2023-02-25T09:23:04.884Z,93.82
2023-02-25T09:25:31.418Z,94.41
2023-02-25T09:27:57.812Z,94.73
2023-02-25T09:30:24.297Z,94.63
2023-02-25T09:32:51.041Z,94.07
2023-02-25T09:35:17.649Z,94.37
2023-02-25T09:37:44.036Z,94.73
2023-02-25T09:40:18.432Z,95.46
2023-02-25T09:42:50.693Z,95.56
2023-02-25T09:45:20.059Z,95.81
2023-02-25T09:47:52.835Z,95.98
2023-02-25T09:50:24.477Z,95.86
2023-02-25T09:53:00.904Z,96.52
2023-02-25T09:55:35.029Z,96.05
2023-02-25T09:58:08.771Z,96.00
2023-02-25T10:00:43.290Z,95.78
2023-02-25T10:03:25.775Z,95.16
2023-02-25T10:06:16.474Z,94.64
2023-02-25T10:08:50.134Z,94.46
2023-02-25T10:11:27.459Z,94.02
2023-02-25T10:14:03.259Z,93.95
2023-02-25T10:16:43.298Z,93.84
2023-02-25T10:19:18.863Z,93.33
2023-02-25T10:22:22.632Z,92.77
2023-02-25T10:25:12.025Z,92.05
2023-02-25T10:27:43.783Z,91.48
2023-02-25T10:30:21.758Z,90.61
2023-02-25T10:32:49.074Z,89.72
2023-02-25T10:35:29.118Z,88.52
2023-02-25T10:37:55.819Z,88.36
2023-02-25T10:40:25.084Z,87.77
2023-02-25T10:42:54.465Z,87.33
2023-02-25T10:45:25.798Z,88.07
2023-02-25T10:48:26.546Z,88.76
2023-02-25T10:51:14.724Z,88.75
2023-02-25T10:54:06.561Z,89.25
2023-02-25T10:56:44.193Z,88.37
2023-02-25T10:59:37.036Z,88.19
2023-02-25T11:02:18.530Z,88.05
2023-02-25T11:04:44.995Z,87.45
2023-02-25T11:07:35.557Z,88.60
2023-02-25T11:10:17.483Z,88.95
2023-02-25T11:12:49.956Z,89.70
2023-02-25T11:15:19.758Z,89.88
2023-02-25T11:17:46.500Z,89.48
2023-02-25T11:20:26.013Z,90.52
2023-02-25T11:22:57.948Z,91.43
2023-02-25T11:25:36.932Z,92.15
2023-02-25T11:28:05.044Z,92.35
2023-02-25T11:30:38.491Z,92.15
2023-02-25T11:33:14.361Z,93.10
2023-02-25T11:35:41.226Z,93.12
2023-02-25T11:38:27.618Z,92.76
2023-02-25T11:40:55.216Z,92.96
2023-02-25T11:43:28.020Z,92.27
2023-02-25T11:46:00.345Z,91.74
2023-02-25T11:48:47.287Z,91.24
2023-02-25T11:51:22.677Z,89.70
2023-02-25T11:54:07.535Z,89.55
2023-02-25T11:56:40.411Z,88.66
2023-02-25T11:59:37.247Z,86.93
2023-02-25T12:02:47.775Z,87.59
2023-02-25T12:05:30.592Z,87.71
2023-02-25T12:08:32.929Z,87.85
2023-02-25T12:11:31.231Z,87.41
2023-02-25T12:14:29.768Z,86.39
2023-02-25T12:17:37.183Z,86.76
2023-02-25T12:20:21.921Z,86.38
2023-02-25T12:23:06.730Z,85.94
2023-02-25T12:25:48.451Z,85.61
2023-02-25T12:28:40.884Z,82.51
2023-02-25T12:31:40.866Z,81.85
2023-02-25T12:34:44.781Z,81.92
2023-02-25T12:37:42.338Z,81.13
2023-02-25T12:40:23.854Z,81.68
2023-02-25T12:43:15.902Z,81.45
2023-02-25T12:46:15.204Z,81.45
2023-02-25T12:49:04.198Z,81.85
2023-02-25T12:52:15.033Z,80.01
2023-02-25T12:55:06.598Z,77.54
2023-02-25T12:57:49.026Z,76.70
2023-02-25T13:00:45.477Z,74.05
2023-02-25T13:03:36.429Z,72.89
2023-02-25T13:06:17.711Z,72.23
2023-02-25T13:09:01.154Z,72.88
2023-02-25T13:12:10.548Z,74.05
2023-02-25T13:14:46.637Z,74.03
2023-02-25T13:17:43.584Z,75.22
2023-02-25T13:20:34.950Z,75.37
2023-02-25T13:23:26.378Z,75.44
2023-02-25T13:26:28.103Z,75.83
2023-02-25T13:29:15.702Z,74.54
2023-02-25T13:31:45.022Z,76.06
2023-02-25T13:34:29.500Z,75.60
2023-02-25T13:37:08.253Z,73.37
2023-02-25T13:39:48.610Z,72.84
2023-02-25T13:42:36.192Z,70.92
2023-02-25T13:45:45.961Z,68.94
2023-02-25T13:48:39.790Z,67.75
2023-02-25T13:51:44.357Z,65.57
2023-02-25T13:54:33.862Z,63.88
2023-02-25T13:57:22.040Z,63.17
2023-02-25T14:00:09.167Z,63.23
2023-02-25T14:02:50.453Z,63.91
2023-02-25T14:05:33.579Z,64.95
2023-02-25T14:08:24.600Z,64.63
2023-02-25T14:11:15.919Z,62.36
2023-02-25T14:13:54.595Z,62.68
2023-02-25T14:16:29.601Z,61.29
2023-02-25T14:19:29.037Z,59.24
2023-02-25T14:22:07.463Z,57.34
2023-02-25T14:25:02.696Z,54.29
2023-02-25T14:27:32.839Z,52.50
2023-02-25T14:30:12.865Z,51.27
2023-02-25T14:32:57.092Z,48.56
2023-02-25T14:35:32.881Z,49.22
2023-02-25T14:38:11.770Z,49.34
2023-02-25T14:40:47.319Z,50.69
2023-02-25T14:43:35.389Z,51.34
2023-02-25T14:46:17.383Z,51.92
2023-02-25T14:48:59.513Z,50.57
2023-02-25T14:51:35.732Z,48.21
2023-02-25T14:54:10.945Z,46.46
2023-02-25T14:56:49.365Z,46.68
2023-02-25T14:59:29.626Z,44.37
2023-02-25T15:02:16.116Z,43.96
2023-02-25T15:05:14.827Z,42.33
2023-02-25T15:08:00.150Z,40.90
2023-02-25T15:11:06.685Z,41.20
2023-02-25T15:13:51.447Z,40.34
2023-02-25T15:16:30.878Z,41.01
2023-02-25T15:19:35.762Z,41.66
2023-02-25T15:22:14.247Z,42.44
2023-02-25T15:24:41.835Z,42.98
2023-02-25T15:27:33.798Z,42.70
2023-02-25T15:30:03.747Z,43.73
2023-02-25T15:32:46.895Z,44.13
2023-02-25T15:35:20.498Z,44.78
2023-02-25T15:37:50.006Z,45.46
2023-02-25T15:40:16.368Z,45.82
2023-02-25T15:42:54.662Z,45.76
2023-02-25T15:45:27.558Z,45.58
2023-02-25T15:48:12.516Z,46.17
2023-02-25T15:50:47.583Z,46.26
2023-02-25T15:53:20.971Z,45.79
2023-02-25T15:56:03.612Z,46.27
2023-02-25T15:58:30.262Z,46.63
2023-02-25T16:01:05.737Z,46.60
2023-02-25T16:03:32.092Z,47.45
2023-02-25T16:06:16.695Z,47.63
2023-02-25T16:09:06.485Z,46.78
2023-02-25T16:11:45.566Z,46.18
2023-02-25T16:14:31.566Z,46.81
2023-02-25T16:17:14.183Z,46.96
2023-02-25T16:19:42.140Z,46.31
2023-02-25T16:22:19.686Z,46.48
2023-02-25T16:24:52.276Z,46.21
2023-02-25T16:27:36.450Z,46.07
2023-02-25T16:30:13.991Z,46.04
2023-02-25T16:32:43.794Z,45.88
2023-02-25T16:35:36.494Z,45.73
2023-02-25T16:38:22.392Z,46.43
2023-02-25T16:40:49.089Z,46.17
2023-02-25T16:43:21.975Z,46.38
2023-02-25T16:46:02.626Z,45.67
2023-02-25T16:48:34.680Z,46.15
2023-02-25T16:51:10.484Z,46.93
2023-02-25T16:53:45.798Z,46.52
2023-02-25T16:56:21.710Z,47.08
2023-02-25T16:59:04.770Z,47.36
2023-02-25T17:01:33.184Z,46.74
2023-02-25T17:04:14.205Z,47.40
2023-02-25T17:06:40.779Z,48.06
2023-02-25T17:09:07.345Z,47.83
2023-02-25T17:11:33.910Z,47.93
2023-02-25T17:14:04.195Z,47.40
2023-02-25T17:16:37.208Z,47.29
2023-02-25T17:19:08.525Z,47.76
2023-02-25T17:21:47.168Z,48.21
2023-02-25T17:24:22.339Z,47.97
2023-02-25T17:26:50.996Z,48.62
2023-02-25T17:29:18.702Z,47.85
2023-02-25T17:31:50.909Z,48.35
2023-02-25T17:34:29.483Z,48.89
2023-02-25T17:36:59.127Z,48.61
2023-02-25T17:39:26.078Z,48.19
2023-02-25T17:41:53.246Z,49.03
2023-02-25T17:44:42.517Z,48.97
2023-02-25T17:47:12.553Z,49.02
2023-02-25T17:49:39.135Z,48.58
2023-02-25T17:52:21.650Z,49.44
2023-02-25T17:54:55.414Z,49.52
2023-02-25T17:57:24.490Z,49.72
2023-02-25T18:00:04.391Z,49.56
2023-02-25T18:02:43.866Z,50.01
2023-02-25T18:05:10.179Z,49.78
2023-02-25T18:07:37.989Z,50.54
2023-02-25T18:10:05.304Z,50.43
2023-02-25T18:12:37.683Z,50.69
2023-02-25T18:15:16.126Z,51.01
2023-02-25T18:17:47.316Z,50.66
2023-02-25T18:20:35.199Z,50.75
2023-02-25T18:23:13.524Z,51.06
2023-02-25T18:25:42.816Z,51.06
2023-02-25T18:28:24.025Z,51.30
2023-02-25T18:30:50.785Z,51.30
2023-02-25T18:33:17.922Z,51.50
2023-02-25T18:35:46.927Z,51.98
2023-02-25T18:38:19.898Z,52.07
2023-02-25T18:40:47.377Z,52.06
2023-02-25T18:43:30.505Z,52.54
2023-02-25T18:45:57.056Z,52.75
2023-02-25T18:48:23.451Z,52.83
2023-02-25T18:50:49.808Z,53.02
2023-02-25T18:53:24.317Z,53.10
2023-02-25T18:55:52.739Z,53.36
2023-02-25T18:58:21.809Z,53.49
2023-02-25T19:00:54.613Z,53.73
2023-02-25T19:03:24.587Z,53.79
2023-02-25T19:05:50.940Z,53.54
2023-02-25T19:08:17.992Z,53.91
2023-02-25T19:10:45.634Z,54.04
2023-02-25T19:13:18.911Z,54.24
2023-02-25T19:15:45.396Z,54.16
2023-02-25T19:18:13.513Z,54.01
2023-02-25T19:20:40.887Z,54.89
2023-02-25T19:23:07.246Z,54.79
2023-02-25T19:25:35.628Z,54.23
2023-02-25T19:28:03.264Z,54.44
2023-02-25T19:30:34.802Z,54.44
2023-02-25T19:33:04.844Z,54.91
2023-02-25T19:35:33.623Z,54.93
2023-02-25T19:38:00.306Z,54.64
2023-02-25T19:40:28.931Z,54.93
2023-02-25T19:42:56.040Z,55.03
2023-02-25T19:45:24.025Z,54.77
2023-02-25T19:47:50.900Z,54.52
2023-02-25T19:50:19.185Z,54.50
2023-02-25T19:52:45.557Z,55.35
2023-02-25T19:55:13.317Z,54.60
2023-02-25T19:57:40.814Z,55.28
2023-02-25T20:00:13.928Z,55.08
2023-02-25T20:02:40.753Z,55.18
2023-02-25T20:05:08.055Z,55.38
2023-02-25T20:07:35.082Z,55.50
2023-02-25T20:10:01.455Z,55.71
2023-02-25T20:12:27.945Z,56.08
2023-02-25T20:14:54.299Z,55.81
2023-02-25T20:17:20.634Z,56.18
2023-02-25T20:19:47.553Z,56.11
2023-02-25T20:22:14.104Z,56.56
2023-02-25T20:24:40.427Z,56.60
2023-02-25T20:27:06.787Z,56.59
2023-02-25T20:29:33.318Z,56.46
2023-02-25T20:31:59.835Z,56.94
2023-02-25T20:34:27.489Z,56.91
2023-02-25T20:37:02.427Z,56.99
2023-02-25T20:39:41.606Z,57.19
2023-02-25T20:42:14.355Z,57.53
2023-02-25T20:44:41.266Z,57.74
2023-02-25T20:47:12.371Z,58.23
2023-02-25T20:49:40.435Z,58.20
2023-02-25T20:52:07.138Z,58.75
2023-02-25T20:54:33.488Z,58.74
2023-02-25T20:57:00.561Z,58.73
2023-02-25T20:59:26.915Z,59.13
2023-02-25T21:01:53.330Z,59.22
2023-02-25T21:04:19.778Z,59.37
2023-02-25T21:06:46.225Z,59.71
2023-02-25T21:09:12.738Z,60.00
2023-02-25T21:11:39.209Z,60.01
2023-02-25T21:14:10.105Z,60.15
2023-02-25T21:16:37.376Z,60.63
2023-02-25T21:19:05.219Z,60.57
2023-02-25T21:21:36.887Z,60.56
2023-02-25T21:24:08.543Z,61.28
2023-02-25T21:26:39.072Z,60.79
2023-02-25T21:29:06.320Z,61.11
2023-02-25T21:31:32.833Z,61.64
2023-02-25T21:34:00.470Z,61.54
2023-02-25T21:36:26.899Z,61.93
2023-02-25T21:38:53.351Z,61.93
2023-02-25T21:41:20.120Z,61.92
2023-02-25T21:43:46.559Z,61.98
2023-02-25T21:46:16.292Z,62.60
2023-02-25T21:48:44.292Z,62.41
2023-02-25T21:51:18.980Z,62.76
2023-02-25T21:53:45.458Z,63.48
2023-02-25T21:56:15.690Z,63.47
2023-02-25T21:58:43.257Z,63.96
2023-02-25T22:01:19.663Z,63.76
2023-02-25T22:03:47.177Z,64.13
2023-02-25T22:06:14.091Z,64.53
2023-02-25T22:08:42.510Z,64.11
2023-02-25T22:11:16.501Z,64.67
2023-02-25T22:13:43.443Z,65.38
2023-02-25T22:16:11.563Z,65.41
2023-02-25T22:18:38.503Z,65.34
2023-02-25T22:21:09.682Z,65.74
2023-02-25T22:23:36.320Z,66.03
2023-02-25T22:26:09.348Z,66.31
2023-02-25T22:28:36.735Z,66.38
2023-02-25T22:31:03.883Z,65.90
2023-02-25T22:33:33.180Z,66.13
2023-02-25T22:36:01.917Z,66.55
2023-02-25T22:38:33.894Z,66.11
2023-02-25T22:41:01.335Z,66.68
2023-02-25T22:43:28.591Z,66.73
2023-02-25T22:46:11.860Z,67.02
2023-02-25T22:48:40.091Z,67.43
2023-02-25T22:51:09.220Z,67.66
2023-02-25T22:53:36.715Z,67.85
2023-02-25T22:56:06.108Z,67.86
2023-02-25T22:58:33.246Z,67.55
2023-02-25T23:00:59.708Z,68.02
2023-02-25T23:03:26.496Z,67.80
2023-02-25T23:05:54.672Z,68.21
2023-02-25T23:08:22.345Z,68.59
2023-02-25T23:10:49.568Z,68.05
2023-02-25T23:13:16.106Z,68.26
2023-02-25T23:15:47.258Z,68.62
2023-02-25T23:18:15.247Z,68.37
2023-02-25T23:20:41.698Z,68.81
2023-02-25T23:23:09.480Z,68.88
2023-02-25T23:25:38.797Z,69.60
2023-02-25T23:28:07.788Z,69.51
2023-02-25T23:30:38.479Z,69.18
2023-02-25T23:33:05.883Z,69.34
2023-02-25T23:35:33.422Z,69.43
2023-02-25T23:38:00.370Z,69.30
2023-02-25T23:40:26.825Z,70.11
2023-02-25T23:42:53.493Z,69.98
2023-02-25T23:45:19.952Z,70.29
2023-02-25T23:47:46.442Z,69.92
2023-02-25T23:50:18.055Z,70.10
2023-02-25T23:52:46.614Z,70.91
2023-02-25T23:55:14.326Z,70.52
2023-02-25T23:57:41.101Z,71.08
